Vyborg, Russia
Current Conditions -  °F | °C
As of 2:20 PM on Friday 31 Oct 2014 (Local Time) from EFLP Reporting Station
Broken Clouds Broken Clouds  
Wind Chill: 33°   Ceiling: 1100
Heat Index: 37°   Visibility: 6mi
Dew Point: 36°   Wind: 6mph
Humidity: 93%   Direction: 270°W
Pressure: 30.09"   Gusts: NA
Location:  60.7°N, 28.75°E
Report Text: EFLP 311120Z AUTO 27005KT 9999 FEW009 BKN011 03/02 Q1019
Loading
Personal Weather Stations






























Interactive Weather Map
Tropical Storm Tracking
New forecast layout! Learn more

10-Day Weather Forecast

Advertisements
Track Severe Weather on mobile